Time;durP1;ratioP1;P1;durP2;ratioP2;P2;SDS_P1;SDS_P2;PMS_P1;PMS_P2;Temp;Humidity;BMP_temperature;BMP_pressure;BME280_temperature;BME280_humidity;BME280_pressure;Samples;Min_cycle;Max_cycle;Signal;HPM_P1;HPM_P2
2023/12/25 00:01:29;;;;;;;15.93;13.13;;;;;;;7.31;65.85;94742.44;5116495;28;20195;-77
2023/12/25 00:03:59;;;;;;;14.35;12.88;;;;;;;7.25;66.27;94741.03;5117048;28;20187;-77
2023/12/25 00:06:26;;;;;;;14.48;13.02;;;;;;;7.18;66.60;94736.09;5115832;28;20238;-77
2023/12/25 00:08:57;;;;;;;15.70;13.48;;;;;;;7.05;66.70;94737.22;5115915;28;20192;-77
2023/12/25 00:11:25;;;;;;;14.10;12.70;;;;;;;7.00;67.10;94730.00;5116576;28;20204;-77
2023/12/25 00:13:55;;;;;;;16.48;13.73;;;;;;;7.00;67.84;94730.00;5116298;28;20236;-77
2023/12/25 00:16:25;;;;;;;13.60;12.18;;;;;;;6.93;67.20;94734.44;5115851;28;20253;-77
2023/12/25 00:18:52;;;;;;;14.23;11.20;;;;;;;6.93;67.30;94728.94;5116460;28;20253;-77
2023/12/25 00:21:19;;;;;;;13.25;11.85;;;;;;;6.91;67.31;94721.06;5116461;28;20198;-77
2023/12/25 00:23:47;;;;;;;13.73;11.32;;;;;;;6.93;67.80;94713.28;5116008;28;20195;-77
2023/12/25 00:26:21;;;;;;;17.05;13.15;;;;;;;6.90;67.32;94724.97;5115092;28;20196;-77
2023/12/25 00:28:48;;;;;;;14.65;12.95;;;;;;;6.92;68.04;94714.44;5115264;28;20211;-77
2023/12/25 00:31:16;;;;;;;12.43;10.82;;;;;;;6.94;67.77;94706.69;5115032;28;20708;-77
2023/12/25 00:33:43;;;;;;;13.98;11.43;;;;;;;6.94;67.59;94714.13;5115017;28;20199;-77
2023/12/25 00:36:12;;;;;;;14.05;12.05;;;;;;;6.90;67.92;94724.13;5116131;28;20191;-77
2023/12/25 00:38:40;;;;;;;15.75;13.65;;;;;;;6.88;67.94;94724.47;5115838;28;20204;-76
2023/12/25 00:41:08;;;;;;;18.55;15.75;;;;;;;6.75;67.98;94717.34;5116148;28;20180;-77
2023/12/25 00:43:39;;;;;;;19.33;15.68;;;;;;;6.64;68.08;94713.41;5115786;28;20199;-77
2023/12/25 00:46:12;;;;;;;16.33;14.60;;;;;;;6.60;68.61;94721.50;5114842;28;20212;-77
2023/12/25 00:48:39;;;;;;;13.60;11.98;;;;;;;6.62;68.98;94715.72;5115831;28;20203;-77
2023/12/25 00:51:07;;;;;;;14.18;12.32;;;;;;;6.64;68.71;94721.66;5114922;28;20216;-77
2023/12/25 00:53:34;;;;;;;15.18;13.20;;;;;;;6.64;69.08;94719.69;5114320;28;20695;-77
2023/12/25 00:56:04;;;;;;;14.32;12.02;;;;;;;6.68;68.92;94725.31;5115891;28;20241;-77
2023/12/25 00:58:31;;;;;;;14.07;12.57;;;;;;;6.66;68.54;94717.44;5114947;28;20687;-77
2023/12/25 01:01:00;;;;;;;16.17;14.45;;;;;;;6.56;68.92;94719.78;5115132;28;20223;-77
2023/12/25 01:03:28;;;;;;;17.25;14.50;;;;;;;6.50;69.24;94721.94;5115457;28;20242;-77
2023/12/25 01:05:57;;;;;;;16.35;14.27;;;;;;;6.54;69.27;94716.59;5119763;27;20249;-77
2023/12/25 01:08:26;;;;;;;18.08;16.17;;;;;;;6.59;69.49;94724.59;5139753;27;20198;-77
2023/12/25 01:10:57;;;;;;;18.92;15.23;;;;;;;6.64;69.59;94716.97;5157303;27;20209;-77
2023/12/25 01:13:24;;;;;;;16.88;15.18;;;;;;;6.70;69.63;94729.31;5139612;27;20201;-77
2023/12/25 01:15:54;;;;;;;16.65;13.57;;;;;;;6.73;69.22;94720.44;5138750;27;20182;-77
2023/12/25 01:18:30;;;;;;;17.45;15.52;;;;;;;6.69;68.85;94705.00;5156909;27;20193;-77
2023/12/25 01:20:58;;;;;;;17.08;14.82;;;;;;;6.67;68.98;94707.28;5156903;27;20544;-77
2023/12/25 01:23:26;;;;;;;17.73;14.18;;;;;;;6.70;68.88;94715.63;5156504;27;20242;-77
2023/12/25 01:25:54;;;;;;;19.58;14.88;;;;;;;6.63;69.31;94698.94;5139145;27;20594;-77
2023/12/25 01:28:23;;;;;;;16.90;13.65;;;;;;;6.64;69.83;94697.78;5156840;27;20190;-77
2023/12/25 01:30:51;;;;;;;15.73;14.18;;;;;;;6.65;69.40;94715.84;5156504;27;20261;-77
2023/12/25 01:33:20;;;;;;;16.70;14.93;;;;;;;6.64;69.53;94705.19;5138617;27;20233;-77
2023/12/25 01:35:48;;;;;;;14.98;13.38;;;;;;;6.57;69.51;94708.47;5156798;27;20243;-77
2023/12/25 01:38:17;;;;;;;15.68;13.00;;;;;;;6.61;70.00;94708.59;5139373;27;20199;-77
2023/12/25 01:40:45;;;;;;;16.38;13.25;;;;;;;6.66;69.91;94716.63;5155505;27;20182;-77
2023/12/25 01:43:13;;;;;;;14.20;12.70;;;;;;;6.68;69.88;94696.00;5138488;27;20198;-77
2023/12/25 01:45:40;;;;;;;15.48;13.80;;;;;;;6.67;69.56;94708.06;5156426;27;20238;-77
2023/12/25 01:48:07;;;;;;;13.45;12.05;;;;;;;6.66;69.81;94706.47;5156323;27;20529;-77
2023/12/25 01:50:38;;;;;;;11.77;10.20;;;;;;;6.72;69.81;94701.59;5138519;27;20255;-77
2023/12/25 01:53:12;;;;;;;11.45;10.00;;;;;;;6.81;69.39;94701.50;5139097;27;20191;-77
2023/12/25 01:55:38;;;;;;;14.43;12.65;;;;;;;6.84;69.29;94709.06;5155913;27;20194;-77
2023/12/25 01:58:07;;;;;;;16.70;12.68;;;;;;;6.82;68.98;94701.16;5156320;27;20252;-77
2023/12/25 02:00:41;;;;;;;17.92;15.70;;;;;;;6.72;68.64;94713.38;5156312;27;20231;-77
2023/12/25 02:03:08;;;;;;;17.98;16.15;;;;;;;6.65;69.43;94717.78;5155779;27;20217;-77
2023/12/25 02:05:35;;;;;;;15.02;13.30;;;;;;;6.65;69.33;94717.78;5137616;27;20215;-77
2023/12/25 02:08:04;;;;;;;12.68;11.07;;;;;;;6.66;69.23;94714.69;5156416;27;20221;-77
2023/12/25 02:10:39;;;;;;;13.70;10.98;;;;;;;6.70;69.23;94698.38;5156329;27;20198;-77
2023/12/25 02:13:07;;;;;;;13.48;11.20;;;;;;;6.71;69.27;94700.78;5156785;27;20503;-77
2023/12/25 02:15:35;;;;;;;11.77;10.52;;;;;;;6.76;69.02;94705.25;5140797;27;20255;-77
2023/12/25 02:18:03;;;;;;;11.48;10.15;;;;;;;6.76;69.36;94708.00;5158997;27;20237;-77
2023/12/25 02:20:30;;;;;;;12.82;9.55;;;;;;;6.74;69.09;94700.09;5159576;27;20190;-77
2023/12/25 02:23:02;;;;;;;13.07;10.30;;;;;;;6.71;68.98;94705.47;5142484;27;20190;-77
2023/12/25 02:25:40;;;;;;;10.77;8.77;;;;;;;6.71;69.11;94687.06;5160080;27;20265;-77
2023/12/25 02:28:11;;;;;;;10.25;9.25;;;;;;;6.74;68.63;94708.31;5141754;27;20202;-77
2023/12/25 02:30:38;;;;;;;12.70;9.93;;;;;;;6.74;68.55;94705.59;5159589;27;20237;-77
2023/12/25 02:33:05;;;;;;;12.20;9.95;;;;;;;6.66;69.24;94702.94;5142544;27;20511;-77
2023/12/25 02:35:33;;;;;;;14.30;12.10;;;;;;;6.50;69.25;94708.25;5139355;27;20198;-77
2023/12/25 02:38:00;;;;;;;14.20;12.68;;;;;;;6.39;69.08;94709.75;5142556;27;20191;-77
2023/12/25 02:40:30;;;;;;;13.23;11.30;;;;;;;6.37;69.32;94703.84;5160085;27;20198;-77
2023/12/25 02:42:56;;;;;;;15.27;13.43;;;;;;;6.28;69.94;94701.16;5159708;27;20218;-77
2023/12/25 02:45:27;;;;;;;16.52;14.18;;;;;;;6.24;69.75;94714.72;5141350;27;20216;-77
2023/12/25 02:47:54;;;;;;;19.10;15.82;;;;;;;6.27;70.36;94711.31;5141001;27;20262;-77
2023/12/25 02:50:21;;;;;;;17.88;14.65;;;;;;;6.30;70.45;94701.63;5159854;27;20225;-77
2023/12/25 02:52:47;;;;;;;16.98;15.02;;;;;;;6.27;70.36;94711.31;5159430;27;20213;-77
2023/12/25 02:55:15;;;;;;;17.15;15.27;;;;;;;6.20;70.60;94716.53;5159408;27;20182;-77
2023/12/25 02:57:43;;;;;;;17.23;13.80;;;;;;;6.21;70.67;94703.66;5159046;27;20175;-77
2023/12/25 03:00:14;;;;;;;13.18;11.80;;;;;;;6.23;70.80;94713.13;5141458;27;20190;-77
2023/12/25 03:02:45;;;;;;;15.02;11.35;;;;;;;6.29;71.04;94724.69;5158387;27;20239;-77
2023/12/25 03:05:12;;;;;;;14.55;11.88;;;;;;;6.28;70.82;94736.75;5159867;27;20524;-77
2023/12/25 03:07:39;;;;;;;13.52;11.30;;;;;;;6.31;70.91;94736.09;5138484;27;20270;-77
2023/12/25 03:10:11;;;;;;;15.98;13.60;;;;;;;6.27;70.92;94732.41;5159092;27;20190;-77
2023/12/25 03:12:40;;;;;;;16.88;13.73;;;;;;;6.20;70.53;94732.94;5141797;27;20191;-77
2023/12/25 03:15:09;;;;;;;15.00;13.18;;;;;;;6.19;70.76;94730.56;5158796;27;20186;-77
2023/12/25 03:17:36;;;;;;;14.50;13.00;;;;;;;6.17;70.80;94730.91;5139978;27;20263;-77
2023/12/25 03:20:07;;;;;;;15.85;12.40;;;;;;;6.17;70.70;94747.34;5158653;27;20179;-77
2023/12/25 03:22:36;;;;;;;16.27;13.25;;;;;;;6.19;71.11;94746.97;5158593;27;20175;-77
2023/12/25 03:25:06;;;;;;;15.10;13.55;;;;;;;6.17;70.86;94741.84;5140363;27;20202;-77
2023/12/25 03:27:33;;;;;;;15.77;13.20;;;;;;;6.13;70.51;94753.78;5159095;27;20226;-77
2023/12/25 03:30:02;;;;;;;15.80;12.07;;;;;;;6.07;71.22;94741.44;5140844;27;20251;-77
2023/12/25 03:32:29;;;;;;;13.80;11.25;;;;;;;6.11;71.22;94753.34;5140984;27;20206;-77
2023/12/25 03:34:59;;;;;;;13.55;12.15;;;;;;;6.13;70.86;94740.09;5140484;27;20198;-77
2023/12/25 03:37:28;;;;;;;14.70;13.10;;;;;;;6.10;71.10;94755.28;5158313;27;20586;-77
2023/12/25 03:39:57;;;;;;;14.43;12.15;;;;;;;6.06;70.78;94756.25;5158564;27;20191;-77
2023/12/25 03:42:29;;;;;;;14.27;12.23;;;;;;;6.05;71.03;94749.97;5158219;27;20602;-77
2023/12/25 03:44:56;;;;;;;11.20;9.93;;;;;;;6.05;71.07;94741.75;5157408;27;20528;-77
2023/12/25 03:47:23;;;;;;;14.27;11.75;;;;;;;6.05;71.10;94741.75;5158129;27;20183;-77
2023/12/25 03:49:53;;;;;;;12.27;10.95;;;;;;;6.02;71.25;94762.38;5157999;27;20178;-77
2023/12/25 03:52:24;;;;;;;13.82;12.38;;;;;;;5.89;70.55;94774.34;5140268;27;20214;-77
2023/12/25 03:54:55;;;;;;;15.23;11.07;;;;;;;5.75;70.72;94779.25;5140070;27;20201;-77
2023/12/25 03:57:25;;;;;;;12.63;11.40;;;;;;;5.70;70.72;94768.47;5158116;27;20182;-77
2023/12/25 03:59:52;;;;;;;13.18;11.80;;;;;;;5.61;71.50;94765.78;5140215;27;20206;-77
2023/12/25 04:02:22;;;;;;;11.75;10.52;;;;;;;5.64;71.35;94767.06;5139979;27;20262;-77
2023/12/25 04:04:49;;;;;;;13.68;11.20;;;;;;;5.66;71.63;94783.94;5157763;27;20586;-77
2023/12/25 04:07:27;;;;;;;12.18;10.98;;;;;;;5.60;71.38;94786.09;5121708;27;20227;-77
2023/12/25 04:09:56;;;;;;;14.80;11.32;;;;;;;5.59;71.51;94797.34;5116372;28;20176;-77
2023/12/25 04:12:24;;;;;;;12.48;11.27;;;;;;;5.61;71.74;94803.28;5115636;28;20661;-77
2023/12/25 04:14:52;;;;;;;12.50;10.38;;;;;;;5.62;71.82;94804.91;5116505;28;20260;-78
2023/12/25 04:17:19;;;;;;;12.45;10.75;;;;;;;5.61;71.60;94795.09;5115276;28;20649;-77
2023/12/25 04:19:48;;;;;;;12.95;11.55;;;;;;;5.64;71.79;94780.75;5116162;28;20252;-77
2023/12/25 04:22:15;;;;;;;11.98;10.18;;;;;;;5.69;71.77;94786.84;5116470;28;20188;-77
2023/12/25 04:24:49;;;;;;;13.55;12.13;;;;;;;5.72;71.98;94777.97;5115783;28;20207;-77
2023/12/25 04:27:19;;;;;;;11.80;10.60;;;;;;;5.72;72.04;94788.13;5115658;28;20252;-77
2023/12/25 04:29:47;;;;;;;12.35;10.50;;;;;;;5.72;71.61;94779.91;5116100;28;20199;-77
2023/12/25 04:32:15;;;;;;;11.88;9.55;;;;;;;5.71;71.74;94778.31;5113703;28;20262;-77
2023/12/25 04:34:42;;;;;;;12.90;9.48;;;;;;;5.75;71.94;94774.59;5115939;28;20268;-77
2023/12/25 04:37:09;;;;;;;11.63;10.43;;;;;;;5.80;71.63;94779.06;5115127;28;20203;-77
2023/12/25 04:39:36;;;;;;;10.98;9.10;;;;;;;5.82;71.75;94767.81;5115247;28;20261;-77
2023/12/25 04:42:04;;;;;;;9.35;8.23;;;;;;;5.87;71.22;94770.34;5115232;28;20196;-77
2023/12/25 04:44:33;;;;;;;8.00;7.13;;;;;;;5.94;70.85;94778.88;5115754;28;20412;-77
2023/12/25 04:47:01;;;;;;;11.95;8.07;;;;;;;6.01;70.64;94785.41;5115039;28;20545;-77
2023/12/25 04:49:29;;;;;;;15.55;11.07;;;;;;;5.88;70.37;94785.63;5115267;28;20268;-77
2023/12/25 04:51:56;;;;;;;13.65;10.98;;;;;;;5.67;70.45;94794.59;5115640;28;20293;-77
2023/12/25 04:54:23;;;;;;;12.15;10.30;;;;;;;5.61;70.57;94793.16;5115578;28;20227;-77
2023/12/25 04:56:52;;;;;;;11.85;10.18;;;;;;;5.59;71.27;94789.13;5115661;28;20179;-77
2023/12/25 04:59:21;;;;;;;14.07;11.98;;;;;;;5.55;71.48;94776.13;5116116;28;20215;-77
2023/12/25 05:01:53;;;;;;;23.33;17.55;;;;;;;5.53;71.64;94780.31;5114896;28;20282;-77
2023/12/25 05:04:20;;;;;;;17.23;14.57;;;;;;;5.51;72.02;94788.03;5115552;28;20199;-77
2023/12/25 05:06:49;;;;;;;21.10;18.15;;;;;;;5.55;72.09;94788.97;5124250;27;20317;-77
2023/12/25 05:09:20;;;;;;;21.48;18.58;;;;;;;5.60;72.47;94782.56;5118057;28;20199;-77
2023/12/25 05:11:48;;;;;;;20.00;17.85;;;;;;;5.61;72.21;94778.69;5135905;28;20309;-77
2023/12/25 05:14:15;;;;;;;20.15;17.27;;;;;;;5.61;72.38;94781.41;5118255;28;20256;-77
2023/12/25 05:16:42;;;;;;;14.98;13.30;;;;;;;5.60;72.20;94783.34;5118462;28;20191;-77
2023/12/25 05:19:12;;;;;;;13.60;11.93;;;;;;;5.60;72.53;94794.28;5118194;28;20294;-77
2023/12/25 05:21:40;;;;;;;16.67;13.85;;;;;;;5.63;72.36;94807.31;5135894;28;20678;-77
2023/12/25 05:24:08;;;;;;;12.82;11.52;;;;;;;5.62;72.29;94810.38;5135901;28;20223;-77
2023/12/25 05:26:35;;;;;;;10.27;9.27;;;;;;;5.66;72.38;94814.06;5118659;28;20552;-77
2023/12/25 05:29:04;;;;;;;10.80;9.63;;;;;;;5.70;72.45;94801.31;5136375;28;20191;-77
2023/12/25 05:31:32;;;;;;;12.07;9.23;;;;;;;5.73;71.81;94804.19;5117558;28;20250;-77
2023/12/25 05:33:59;;;;;;;15.73;11.57;;;;;;;5.67;71.90;94808.28;5117749;28;20194;-77
2023/12/25 05:36:27;;;;;;;14.98;13.35;;;;;;;5.54;71.77;94807.34;5136097;28;20183;-77
2023/12/25 05:38:55;;;;;;;11.60;9.93;;;;;;;5.51;72.01;94805.25;5118226;28;20199;-77
2023/12/25 05:41:22;;;;;;;10.43;9.27;;;;;;;5.52;72.00;94789.66;5117844;28;20294;-77
2023/12/25 05:43:51;;;;;;;9.60;8.00;;;;;;;5.56;72.51;94801.56;5135730;28;20179;-77
2023/12/25 05:46:18;;;;;;;9.57;7.70;;;;;;;5.64;72.15;94819.06;5118422;28;20619;-77
2023/12/25 05:48:45;;;;;;;9.63;7.88;;;;;;;5.68;71.91;94817.28;5118027;27;20216;-76
2023/12/25 05:51:12;;;;;;;10.48;8.13;;;;;;;5.69;71.69;94797.78;5139830;27;20199;-77
2023/12/25 05:53:41;;;;;;;9.95;8.10;;;;;;;5.72;71.86;94810.81;5122159;27;20199;-77
2023/12/25 05:56:08;;;;;;;9.02;8.13;;;;;;;5.73;71.73;94800.66;5122028;27;20195;-77
2023/12/25 05:58:35;;;;;;;10.10;7.88;;;;;;;5.76;71.75;94797.28;5122638;27;20228;-77
2023/12/25 06:01:03;;;;;;;8.68;7.60;;;;;;;5.74;71.36;94792.13;5121740;27;20194;-77
2023/12/25 06:03:30;;;;;;;9.32;7.57;;;;;;;5.71;71.48;94795.53;5139486;27;20183;-77
2023/12/25 06:06:01;;;;;;;9.00;7.50;;;;;;;5.74;71.28;94805.03;5100890;28;20228;-77
2023/12/25 06:08:29;;;;;;;9.15;7.53;;;;;;;5.69;71.47;94802.44;5119048;28;20208;-77
2023/12/25 06:11:01;;;;;;;10.50;8.40;;;;;;;5.60;71.63;94829.06;5119260;28;20241;-77
2023/12/25 06:13:30;;;;;;;12.15;10.50;;;;;;;5.55;71.86;94836.31;5118513;28;20493;-77
2023/12/25 06:15:58;;;;;;;11.40;10.20;;;;;;;5.48;72.18;94848.88;5118914;28;20213;-76
2023/12/25 06:18:28;;;;;;;13.85;11.75;;;;;;;5.47;72.26;94856.28;5117727;28;20204;-76
2023/12/25 06:20:57;;;;;;;15.23;13.68;;;;;;;5.50;72.17;94833.75;5118838;28;20187;-76
2023/12/25 06:23:26;;;;;;;18.23;16.42;;;;;;;5.54;72.23;94864.78;5118788;28;20211;-76
2023/12/25 06:25:53;;;;;;;16.95;15.23;;;;;;;5.59;72.22;94858.31;5118080;28;20246;-76
2023/12/25 06:28:22;;;;;;;13.93;11.95;;;;;;;5.65;71.57;94872.66;5117456;28;20538;-76
2023/12/25 06:30:53;;;;;;;12.63;11.38;;;;;;;5.62;71.58;94885.03;5117691;28;20288;-76
2023/12/25 06:33:23;;;;;;;10.38;9.38;;;;;;;5.65;71.46;94859.75;5118784;28;20261;-76
2023/12/25 06:35:51;;;;;;;10.45;9.05;;;;;;;5.72;71.74;94859.28;5118140;28;20553;-76
2023/12/25 06:38:18;;;;;;;10.50;8.27;;;;;;;5.75;71.37;94862.16;5118199;28;20680;-76
2023/12/25 06:40:46;;;;;;;11.13;8.45;;;;;;;5.79;71.18;94863.09;5118275;28;20245;-76
2023/12/25 06:43:13;;;;;;;8.80;7.65;;;;;;;5.87;71.21;94849.72;5117993;28;20643;-76
2023/12/25 06:45:45;;;;;;;7.75;6.43;;;;;;;5.94;70.75;94839.09;5118764;28;20203;-76
2023/12/25 06:48:12;;;;;;;7.07;6.38;;;;;;;6.05;70.26;94853.22;5116680;28;20298;-76
2023/12/25 06:50:42;;;;;;;9.13;7.22;;;;;;;6.13;70.03;94863.31;5117005;28;20231;-76
2023/12/25 06:53:10;;;;;;;8.98;7.13;;;;;;;6.15;70.36;94859.13;5117789;28;20292;-76
2023/12/25 06:55:37;;;;;;;8.55;6.90;;;;;;;6.16;70.21;94862.66;5118151;28;20237;-76
2023/12/25 06:58:08;;;;;;;8.20;6.85;;;;;;;6.16;70.28;94863.47;5118143;28;20237;-76
2023/12/25 07:00:36;;;;;;;9.00;6.85;;;;;;;6.20;69.96;94869.88;5117066;28;20196;-76
2023/12/25 07:03:06;;;;;;;7.43;6.55;;;;;;;6.23;69.66;94893.06;5116807;28;20203;-76
2023/12/25 07:05:34;;;;;;;8.57;7.20;;;;;;;6.23;69.81;94871.16;5117502;28;20214;-76
2023/12/25 07:08:03;;;;;;;19.30;16.73;;;;;;;6.23;70.22;94865.69;5099035;28;20196;-76
2023/12/25 07:10:31;;;;;;;19.52;16.60;;;;;;;6.25;70.14;94868.91;5100605;28;20208;-76
2023/12/25 07:12:58;;;;;;;19.95;17.83;;;;;;;6.32;70.08;94882.88;5099914;28;20303;-76
2023/12/25 07:15:25;;;;;;;18.42;16.42;;;;;;;6.36;69.68;94886.56;5118071;28;20191;-77
2023/12/25 07:17:55;;;;;;;20.65;18.27;;;;;;;6.40;69.62;94905.88;5100537;28;20233;-76
2023/12/25 07:20:24;;;;;;;17.15;14.98;;;;;;;6.41;69.57;94891.84;5118114;28;20180;-76
2023/12/25 07:22:55;;;;;;;15.52;11.68;;;;;;;6.42;69.48;94889.91;5117792;28;20241;-76
2023/12/25 07:25:25;;;;;;;14.52;11.80;;;;;;;6.50;69.60;94892.63;5099473;28;20196;-76
2023/12/25 07:27:55;;;;;;;12.07;10.77;;;;;;;6.57;69.15;94880.31;5117611;28;20184;-76
2023/12/25 07:30:24;;;;;;;10.98;8.40;;;;;;;6.65;68.81;94874.00;5099982;28;20223;-76
2023/12/25 07:32:52;;;;;;;7.30;6.57;;;;;;;6.77;68.47;94890.50;5099425;28;20678;-76
2023/12/25 07:35:20;;;;;;;8.60;7.28;;;;;;;6.89;67.75;94890.56;5099760;28;20290;-77
2023/12/25 07:37:48;;;;;;;8.10;6.63;;;;;;;7.07;67.91;94893.19;5099407;28;20199;-76
2023/12/25 07:40:16;;;;;;;7.72;6.97;;;;;;;7.19;67.17;94909.72;5099202;28;20207;-76
2023/12/25 07:42:45;;;;;;;8.77;6.88;;;;;;;7.29;67.36;94919.47;5099107;28;20249;-76
2023/12/25 07:45:16;;;;;;;8.90;6.93;;;;;;;7.44;67.37;94919.69;5100014;28;20202;-76
2023/12/25 07:47:47;;;;;;;7.40;6.28;;;;;;;7.52;66.42;94907.03;5099325;28;20623;-76
2023/12/25 07:50:16;;;;;;;7.32;5.93;;;;;;;7.68;65.96;94898.94;5117236;28;20207;-76
2023/12/25 07:52:47;;;;;;;8.02;6.47;;;;;;;7.87;66.02;94909.41;5117113;28;20210;-76
2023/12/25 07:55:20;;;;;;;8.13;6.32;;;;;;;8.02;65.37;94908.75;5117050;28;20183;-76
2023/12/25 07:57:51;;;;;;;8.63;6.40;;;;;;;8.16;64.47;94911.97;5117400;28;20272;-77
2023/12/25 08:00:21;;;;;;;7.55;5.90;;;;;;;8.32;64.21;94912.13;5117155;28;20592;-76
2023/12/25 08:02:50;;;;;;;8.30;6.13;;;;;;;8.48;63.99;94901.28;5116770;28;20168;-77
2023/12/25 08:05:19;;;;;;;8.30;6.30;;;;;;;8.63;63.27;94894.28;5116670;28;20195;-76
2023/12/25 08:07:46;;;;;;;8.13;6.10;;;;;;;8.70;62.36;94904.72;5095420;28;20232;-77
2023/12/25 08:10:15;;;;;;;8.20;6.40;;;;;;;8.81;61.10;94895.63;5096510;28;20184;-77
2023/12/25 08:12:48;;;;;;;9.75;7.25;;;;;;;8.99;61.53;94889.88;5094276;28;20216;-77
2023/12/25 08:15:17;;;;;;;8.27;6.35;;;;;;;9.13;60.83;94888.34;5095245;28;20282;-77
2023/12/25 08:17:44;;;;;;;8.88;5.90;;;;;;;9.29;61.11;94901.38;5095499;28;20208;-77
2023/12/25 08:20:13;;;;;;;7.85;6.32;;;;;;;9.45;60.85;94910.53;5095835;28;20200;-77
2023/12/25 08:22:43;;;;;;;8.40;5.80;;;;;;;9.56;60.37;94917.13;5095235;28;20253;-76
2023/12/25 08:25:10;;;;;;;9.68;6.90;;;;;;;9.64;59.63;94896.91;5096064;28;20185;-76
2023/12/25 08:27:40;;;;;;;12.45;9.63;;;;;;;9.73;59.59;94885.75;5095830;28;20273;-77
2023/12/25 08:30:10;;;;;;;11.93;9.85;;;;;;;9.86;59.16;94886.47;5095490;28;20203;-77
2023/12/25 08:32:40;;;;;;;9.10;7.72;;;;;;;9.98;58.78;94889.13;5095470;28;20255;-76
2023/12/25 08:35:08;;;;;;;9.13;6.78;;;;;;;10.11;57.91;94898.94;5095591;28;20185;-76
2023/12/25 08:37:36;;;;;;;7.18;6.20;;;;;;;10.22;57.89;94896.47;5096048;28;20235;-77
2023/12/25 08:40:05;;;;;;;9.63;6.28;;;;;;;10.38;57.59;94903.97;5094987;28;20208;-76
2023/12/25 08:42:34;;;;;;;7.97;6.18;;;;;;;10.50;57.12;94914.94;5094679;28;20287;-76
2023/12/25 08:45:02;;;;;;;8.70;6.18;;;;;;;10.60;56.52;94904.16;5094858;28;20204;-76
2023/12/25 08:47:32;;;;;;;6.80;6.05;;;;;;;10.76;56.56;94903.34;5094826;28;20199;-76
2023/12/25 08:50:03;;;;;;;9.65;6.75;;;;;;;10.92;55.88;94895.03;5094575;28;20230;-77
2023/12/25 08:52:34;;;;;;;9.90;6.40;;;;;;;11.06;55.83;94901.66;5094647;28;20610;-77
2023/12/25 08:55:04;;;;;;;11.23;7.28;;;;;;;11.22;55.00;94898.06;5095033;28;20551;-77
2023/12/25 08:57:35;;;;;;;10.45;6.80;;;;;;;11.31;53.63;94890.38;5095943;28;20249;-77
2023/12/25 09:00:05;;;;;;;8.07;6.30;;;;;;;11.42;54.05;94882.31;5093743;28;20215;-77
2023/12/25 09:02:39;;;;;;;9.98;6.80;;;;;;;11.60;53.09;94875.19;5095284;28;20192;-77
2023/12/25 09:05:10;;;;;;;9.10;6.47;;;;;;;11.68;52.29;94881.66;5094448;28;20207;-77
2023/12/25 09:07:41;;;;;;;8.10;6.68;;;;;;;11.85;52.61;94877.69;5058555;27;20249;-77
2023/12/25 09:10:12;;;;;;;6.88;5.80;;;;;;;11.98;52.76;94866.09;5138311;27;20194;-77
2023/12/25 09:12:42;;;;;;;7.55;5.65;;;;;;;12.11;51.48;94863.94;5139070;27;20333;-77
2023/12/25 09:15:10;;;;;;;7.18;5.60;;;;;;;12.34;51.56;94863.16;5138803;27;20289;-77
2023/12/25 09:17:43;;;;;;;7.63;5.50;;;;;;;12.52;50.81;94864.25;5139205;27;20186;-77
2023/12/25 09:20:11;;;;;;;7.47;5.60;;;;;;;12.73;50.56;94856.28;5139133;27;20222;-77
2023/12/25 09:22:38;;;;;;;7.47;5.60;;;;;;;12.94;50.26;94852.25;5138374;27;20186;-77
2023/12/25 09:25:13;;;;;;;7.10;5.13;;;;;;;13.16;49.17;94843.06;5142938;27;20201;-77
2023/12/25 09:27:41;;;;;;;8.38;4.75;;;;;;;13.62;48.66;94842.91;5142506;27;20200;-77
2023/12/25 09:30:12;;;;;;;5.82;4.50;;;;;;;13.94;46.88;94850.78;5142742;27;20187;-77
2023/12/25 09:32:45;;;;;;;6.97;4.60;;;;;;;14.19;45.95;94839.94;5143067;27;20218;-77
2023/12/25 09:35:17;;;;;;;7.45;4.45;;;;;;;14.58;45.03;94837.53;5142672;27;20262;-77
2023/12/25 09:37:47;;;;;;;11.20;5.35;;;;;;;14.99;44.25;94843.00;5161351;27;20174;-76
2023/12/25 09:40:14;;;;;;;6.65;4.22;;;;;;;15.29;42.70;94847.56;5160634;27;20178;-76
2023/12/25 09:42:44;;;;;;;7.13;4.95;;;;;;;15.75;41.76;94833.88;5143128;27;20202;-76
2023/12/25 09:45:17;;;;;;;8.13;5.70;;;;;;;16.09;40.88;94828.03;5161333;27;20178;-76
2023/12/25 09:47:48;;;;;;;8.68;5.28;;;;;;;16.37;40.70;94822.50;5143137;27;20222;-76
2023/12/25 09:50:20;;;;;;;10.65;6.80;;;;;;;16.69;40.34;94824.50;5142834;27;20198;-77
2023/12/25 09:52:48;;;;;;;8.85;7.00;;;;;;;17.09;39.54;94814.94;5160705;27;20202;-77
2023/12/25 09:55:15;;;;;;;8.05;6.32;;;;;;;17.47;38.74;94815.25;5160763;27;20187;-77
2023/12/25 09:57:45;;;;;;;6.68;5.55;;;;;;;17.75;38.11;94814.34;5143318;27;20190;-77
2023/12/25 10:00:13;;;;;;;6.72;5.82;;;;;;;17.69;38.05;94810.38;5160411;27;20576;-77
2023/12/25 10:02:50;;;;;;;7.82;5.70;;;;;;;18.09;36.66;94813.78;5160274;27;20683;-77
2023/12/25 10:05:19;;;;;;;7.07;5.50;;;;;;;18.17;37.01;94806.97;5141857;27;20606;-77
2023/12/25 10:07:47;;;;;;;7.45;5.60;;;;;;;18.22;36.91;94805.72;5160693;27;20660;-77
2023/12/25 10:10:15;;;;;;;7.25;5.93;;;;;;;18.14;36.25;94807.78;5160051;27;20590;-77
2023/12/25 10:12:49;;;;;;;9.73;5.82;;;;;;;18.26;36.88;94800.91;5142925;27;20228;-77
2023/12/25 10:15:16;;;;;;;7.47;5.22;;;;;;;18.08;36.60;94798.22;5160281;27;20194;-77
2023/12/25 10:17:43;;;;;;;8.43;5.30;;;;;;;17.90;36.71;94803.13;5160332;27;20186;-77
2023/12/25 10:20:21;;;;;;;6.60;5.72;;;;;;;17.68;37.27;94797.63;5141174;27;20229;-77
2023/12/25 10:22:48;;;;;;;10.43;6.03;;;;;;;17.21;37.43;94804.56;5159734;27;20190;-77
2023/12/25 10:25:16;;;;;;;7.15;5.75;;;;;;;16.69;38.61;94799.44;5141372;27;20236;-77
2023/12/25 10:27:44;;;;;;;6.97;5.80;;;;;;;16.23;39.26;94799.41;5141993;27;20289;-77
2023/12/25 10:30:19;;;;;;;8.35;6.82;;;;;;;15.75;39.97;94794.94;5160123;27;20242;-77
2023/12/25 10:32:46;;;;;;;9.35;6.57;;;;;;;15.47;40.50;94794.81;5159555;27;20231;-77
2023/12/25 10:35:18;;;;;;;7.82;5.97;;;;;;;15.26;40.86;94790.00;5158719;27;20219;-76
2023/12/25 10:37:47;;;;;;;9.27;6.30;;;;;;;15.09;41.29;94788.69;5141567;27;20205;-76
2023/12/25 10:40:23;;;;;;;8.57;5.82;;;;;;;14.90;41.38;94787.81;5124134;27;20198;-77
2023/12/25 10:42:55;;;;;;;7.70;5.65;;;;;;;14.57;42.41;94768.56;5054085;28;20292;-76
2023/12/25 10:45:24;;;;;;;9.65;6.13;;;;;;;14.35;42.75;94770.34;5054627;28;20225;-76
2023/12/25 10:47:52;;;;;;;7.03;5.30;;;;;;;14.28;43.22;94770.28;5054580;28;20242;-76
2023/12/25 10:50:23;;;;;;;8.25;5.57;;;;;;;14.25;43.03;94765.50;5053953;28;20213;-76
2023/12/25 10:52:52;;;;;;;7.38;5.32;;;;;;;14.20;42.89;94766.66;5054559;28;20210;-76
2023/12/25 10:55:27;;;;;;;9.38;5.85;;;;;;;14.10;43.18;94759.84;5052492;28;20206;-76
2023/12/25 10:57:55;;;;;;;7.55;5.25;;;;;;;14.10;43.45;94759.84;5053835;28;20213;-76
2023/12/25 11:00:28;;;;;;;9.88;5.90;;;;;;;14.10;43.38;94759.03;5054202;28;20223;-76
2023/12/25 11:02:56;;;;;;;8.30;5.07;;;;;;;14.00;43.85;94757.75;5053354;28;20198;-76
2023/12/25 11:05:28;;;;;;;7.90;5.75;;;;;;;13.99;44.04;94758.16;5053852;28;20206;-76
2023/12/25 11:10:41;;;;;;;8.63;6.15;;;;;;;13.91;43.77;94766.41;5032898;28;20186;-76
2023/12/25 11:13:08;;;;;;;9.25;6.18;;;;;;;13.95;44.18;94770.00;5033346;28;20246;-76
2023/12/25 11:15:37;;;;;;;9.15;6.13;;;;;;;14.23;43.64;94759.53;5032808;28;20198;-76
2023/12/25 11:18:05;;;;;;;7.55;5.68;;;;;;;14.79;44.05;94764.72;5033636;28;20244;-76
2023/12/25 11:20:37;;;;;;;5.43;4.60;;;;;;;15.85;42.00;94755.25;5033252;28;20191;-76
2023/12/25 11:23:08;;;;;;;7.15;4.95;;;;;;;16.82;39.09;94758.09;5033889;28;20289;-76
2023/12/25 11:25:37;;;;;;;5.82;4.55;;;;;;;17.82;37.30;94759.72;5033136;28;20247;-76
2023/12/25 11:28:06;;;;;;;6.57;4.68;;;;;;;18.97;35.38;94757.66;5033529;28;20183;-76
2023/12/25 11:30:35;;;;;;;7.20;4.18;;;;;;;20.54;32.37;94752.06;5033300;28;20259;-76
2023/12/25 11:33:07;;;;;;;6.90;4.30;;;;;;;22.64;29.37;94746.25;5034078;28;20214;-76
2023/12/25 11:35:35;;;;;;;6.85;4.40;;;;;;;24.15;26.36;94738.16;5033169;28;20203;-77
2023/12/25 11:38:30;;;;;;;7.25;4.45;;;;;;;24.87;25.27;94751.53;5033448;28;20183;-77
2023/12/25 11:41:05;;;;;;;4.88;3.90;;;;;;;25.60;24.92;94750.66;5033307;28;20301;-77
2023/12/25 11:43:33;;;;;;;6.85;4.07;;;;;;;25.99;23.41;94757.72;5033248;28;20582;-77